sensor_id;sensor_type;location;lat;lon;timestamp;P1;durP1;ratioP1;P2;durP2;ratioP2
64915;SDS011;51427;-27.442;153.014;2022-09-13T00:00:48;2.47;;;1.00;;
64915;SDS011;51427;-27.442;153.014;2022-09-13T00:03:16;3.40;;;0.93;;
64915;SDS011;51427;-27.442;153.014;2022-09-13T00:05:45;6.65;;;1.10;;
64915;SDS011;51427;-27.442;153.014;2022-09-13T00:08:13;3.38;;;1.02;;
64915;SDS011;51427;-27.442;153.014;2022-09-13T00:10:42;4.22;;;1.10;;
64915;SDS011;51427;-27.442;153.014;2022-09-13T00:13:11;3.15;;;1.02;;
64915;SDS011;51427;-27.442;153.014;2022-09-13T00:15:43;1.38;;;0.90;;
64915;SDS011;51427;-27.442;153.014;2022-09-13T00:18:15;1.90;;;0.93;;
64915;SDS011;51427;-27.442;153.014;2022-09-13T00:20:44;2.97;;;1.20;;
64915;SDS011;51427;-27.442;153.014;2022-09-13T00:23:12;2.55;;;1.13;;
64915;SDS011;51427;-27.442;153.014;2022-09-13T00:25:40;2.17;;;0.88;;
64915;SDS011;51427;-27.442;153.014;2022-09-13T00:28:08;2.95;;;0.80;;
64915;SDS011;51427;-27.442;153.014;2022-09-13T00:30:35;3.80;;;1.20;;
64915;SDS011;51427;-27.442;153.014;2022-09-13T00:33:04;2.03;;;0.98;;
64915;SDS011;51427;-27.442;153.014;2022-09-13T00:35:31;3.63;;;0.98;;
64915;SDS011;51427;-27.442;153.014;2022-09-13T00:37:59;3.30;;;1.60;;
64915;SDS011;51427;-27.442;153.014;2022-09-13T00:40:26;1.30;;;0.60;;
64915;SDS011;51427;-27.442;153.014;2022-09-13T00:42:55;2.85;;;0.93;;
64915;SDS011;51427;-27.442;153.014;2022-09-13T00:45:22;3.35;;;1.40;;
64915;SDS011;51427;-27.442;153.014;2022-09-13T00:47:54;1.95;;;1.00;;
64915;SDS011;51427;-27.442;153.014;2022-09-13T00:50:34;2.85;;;0.95;;
64915;SDS011;51427;-27.442;153.014;2022-09-13T00:58:31;6.38;;;1.60;;
64915;SDS011;51427;-27.442;153.014;2022-09-13T01:00:59;2.00;;;0.57;;
64915;SDS011;51427;-27.442;153.014;2022-09-13T01:03:29;2.83;;;1.13;;
64915;SDS011;51427;-27.442;153.014;2022-09-13T01:06:14;1.80;;;1.02;;
64915;SDS011;51427;-27.442;153.014;2022-09-13T01:08:48;2.70;;;1.30;;
64915;SDS011;51427;-27.442;153.014;2022-09-13T01:11:29;1.08;;;0.93;;
64915;SDS011;51427;-27.442;153.014;2022-09-13T01:13:58;3.85;;;1.30;;
64915;SDS011;51427;-27.442;153.014;2022-09-13T01:16:26;1.95;;;1.05;;
64915;SDS011;51427;-27.442;153.014;2022-09-13T01:18:53;2.83;;;1.13;;
64915;SDS011;51427;-27.442;153.014;2022-09-13T01:24:12;2.72;;;0.90;;
64915;SDS011;51427;-27.442;153.014;2022-09-13T01:26:54;1.45;;;0.95;;
64915;SDS011;51427;-27.442;153.014;2022-09-13T01:41:07;3.85;;;1.10;;
64915;SDS011;51427;-27.442;153.014;2022-09-13T01:44:09;2.72;;;0.98;;
64915;SDS011;51427;-27.442;153.014;2022-09-13T01:47:06;2.65;;;0.98;;
64915;SDS011;51427;-27.442;153.014;2022-09-13T01:50:17;1.58;;;0.93;;
64915;SDS011;51427;-27.442;153.014;2022-09-13T01:52:55;1.90;;;1.05;;
64915;SDS011;51427;-27.442;153.014;2022-09-13T01:58:30;3.95;;;1.15;;
64915;SDS011;51427;-27.442;153.014;2022-09-13T02:01:21;3.35;;;1.08;;
64915;SDS011;51427;-27.442;153.014;2022-09-13T02:06:45;1.67;;;1.10;;
64915;SDS011;51427;-27.442;153.014;2022-09-13T02:09:21;3.25;;;1.20;;
64915;SDS011;51427;-27.442;153.014;2022-09-13T02:11:55;2.75;;;1.27;;
64915;SDS011;51427;-27.442;153.014;2022-09-13T02:14:45;3.70;;;1.15;;
64915;SDS011;51427;-27.442;153.014;2022-09-13T02:17:38;4.68;;;1.40;;
64915;SDS011;51427;-27.442;153.014;2022-09-13T02:20:23;7.75;;;1.30;;
64915;SDS011;51427;-27.442;153.014;2022-09-13T02:22:56;2.13;;;1.13;;
64915;SDS011;51427;-27.442;153.014;2022-09-13T02:25:27;2.75;;;1.20;;
64915;SDS011;51427;-27.442;153.014;2022-09-13T02:27:59;2.95;;;1.10;;
64915;SDS011;51427;-27.442;153.014;2022-09-13T02:30:32;2.00;;;1.10;;
64915;SDS011;51427;-27.442;153.014;2022-09-13T02:33:27;1.77;;;0.90;;
64915;SDS011;51427;-27.442;153.014;2022-09-13T02:35:59;5.30;;;1.30;;
64915;SDS011;51427;-27.442;153.014;2022-09-13T02:41:06;3.63;;;1.10;;
64915;SDS011;51427;-27.442;153.014;2022-09-13T02:43:51;2.50;;;0.90;;
64915;SDS011;51427;-27.442;153.014;2022-09-13T03:00:47;3.00;;;1.05;;
64915;SDS011;51427;-27.442;153.014;2022-09-13T03:03:32;3.78;;;1.15;;
64915;SDS011;51427;-27.442;153.014;2022-09-13T03:05:59;2.45;;;1.20;;
64915;SDS011;51427;-27.442;153.014;2022-09-13T03:08:27;2.30;;;1.05;;
64915;SDS011;51427;-27.442;153.014;2022-09-13T03:25:30;3.08;;;1.30;;
64915;SDS011;51427;-27.442;153.014;2022-09-13T03:30:47;4.03;;;1.80;;
64915;SDS011;51427;-27.442;153.014;2022-09-13T03:33:27;3.80;;;2.03;;
64915;SDS011;51427;-27.442;153.014;2022-09-13T03:39:15;5.65;;;1.73;;
64915;SDS011;51427;-27.442;153.014;2022-09-13T03:41:49;2.92;;;1.50;;
64915;SDS011;51427;-27.442;153.014;2022-09-13T03:44:22;8.35;;;1.42;;
64915;SDS011;51427;-27.442;153.014;2022-09-13T03:46:53;2.67;;;1.40;;
64915;SDS011;51427;-27.442;153.014;2022-09-13T03:49:24;5.22;;;1.38;;
64915;SDS011;51427;-27.442;153.014;2022-09-13T03:51:54;2.92;;;1.45;;
64915;SDS011;51427;-27.442;153.014;2022-09-13T03:54:31;6.47;;;1.50;;
64915;SDS011;51427;-27.442;153.014;2022-09-13T03:57:11;6.72;;;1.45;;
64915;SDS011;51427;-27.442;153.014;2022-09-13T03:59:41;6.03;;;1.98;;
64915;SDS011;51427;-27.442;153.014;2022-09-13T04:02:26;2.83;;;1.70;;
64915;SDS011;51427;-27.442;153.014;2022-09-13T04:04:54;2.75;;;1.77;;
64915;SDS011;51427;-27.442;153.014;2022-09-13T04:07:22;4.88;;;2.22;;
64915;SDS011;51427;-27.442;153.014;2022-09-13T04:09:50;4.90;;;1.70;;
64915;SDS011;51427;-27.442;153.014;2022-09-13T04:12:18;4.32;;;1.50;;
64915;SDS011;51427;-27.442;153.014;2022-09-13T04:14:45;6.47;;;2.00;;
64915;SDS011;51427;-27.442;153.014;2022-09-13T04:17:13;6.50;;;2.22;;
64915;SDS011;51427;-27.442;153.014;2022-09-13T04:19:40;6.90;;;1.70;;
64915;SDS011;51427;-27.442;153.014;2022-09-13T04:22:09;4.30;;;1.63;;
64915;SDS011;51427;-27.442;153.014;2022-09-13T04:24:37;5.28;;;1.80;;
64915;SDS011;51427;-27.442;153.014;2022-09-13T04:27:05;5.05;;;1.85;;
64915;SDS011;51427;-27.442;153.014;2022-09-13T04:29:32;5.45;;;1.60;;
64915;SDS011;51427;-27.442;153.014;2022-09-13T04:31:59;4.18;;;1.70;;
64915;SDS011;51427;-27.442;153.014;2022-09-13T04:34:27;6.30;;;2.25;;
64915;SDS011;51427;-27.442;153.014;2022-09-13T04:36:54;6.00;;;1.50;;
64915;SDS011;51427;-27.442;153.014;2022-09-13T04:39:22;4.72;;;1.77;;
64915;SDS011;51427;-27.442;153.014;2022-09-13T04:41:50;5.30;;;1.42;;
64915;SDS011;51427;-27.442;153.014;2022-09-13T04:44:19;1.38;;;1.20;;
64915;SDS011;51427;-27.442;153.014;2022-09-13T04:46:48;5.30;;;1.50;;
64915;SDS011;51427;-27.442;153.014;2022-09-13T04:49:16;3.13;;;1.40;;
64915;SDS011;51427;-27.442;153.014;2022-09-13T04:51:45;4.43;;;1.13;;
64915;SDS011;51427;-27.442;153.014;2022-09-13T04:54:12;5.80;;;1.75;;
64915;SDS011;51427;-27.442;153.014;2022-09-13T04:56:40;5.35;;;1.63;;
64915;SDS011;51427;-27.442;153.014;2022-09-13T04:59:07;6.40;;;1.60;;
64915;SDS011;51427;-27.442;153.014;2022-09-13T05:01:35;4.88;;;1.38;;
64915;SDS011;51427;-27.442;153.014;2022-09-13T05:04:03;6.50;;;1.60;;
64915;SDS011;51427;-27.442;153.014;2022-09-13T05:06:31;2.30;;;1.20;;
64915;SDS011;51427;-27.442;153.014;2022-09-13T05:08:58;3.05;;;1.20;;
64915;SDS011;51427;-27.442;153.014;2022-09-13T05:11:26;2.90;;;1.13;;
64915;SDS011;51427;-27.442;153.014;2022-09-13T05:13:55;4.97;;;1.10;;
64915;SDS011;51427;-27.442;153.014;2022-09-13T05:16:25;2.25;;;1.20;;
64915;SDS011;51427;-27.442;153.014;2022-09-13T05:18:54;4.25;;;1.13;;
64915;SDS011;51427;-27.442;153.014;2022-09-13T05:21:22;6.75;;;2.60;;
64915;SDS011;51427;-27.442;153.014;2022-09-13T05:23:52;8.07;;;1.60;;
64915;SDS011;51427;-27.442;153.014;2022-09-13T05:26:22;4.90;;;1.40;;
64915;SDS011;51427;-27.442;153.014;2022-09-13T05:28:50;4.72;;;1.30;;
64915;SDS011;51427;-27.442;153.014;2022-09-13T05:31:19;5.97;;;1.63;;
64915;SDS011;51427;-27.442;153.014;2022-09-13T05:33:56;4.82;;;1.30;;
64915;SDS011;51427;-27.442;153.014;2022-09-13T05:36:25;5.22;;;1.70;;
64915;SDS011;51427;-27.442;153.014;2022-09-13T05:38:53;5.35;;;1.33;;
64915;SDS011;51427;-27.442;153.014;2022-09-13T05:41:21;8.57;;;1.95;;
64915;SDS011;51427;-27.442;153.014;2022-09-13T05:43:49;6.10;;;1.42;;
64915;SDS011;51427;-27.442;153.014;2022-09-13T05:46:17;3.50;;;1.33;;
64915;SDS011;51427;-27.442;153.014;2022-09-13T05:48:45;4.55;;;1.48;;
64915;SDS011;51427;-27.442;153.014;2022-09-13T05:51:20;4.13;;;1.38;;
64915;SDS011;51427;-27.442;153.014;2022-09-13T05:53:49;5.53;;;1.63;;
64915;SDS011;51427;-27.442;153.014;2022-09-13T05:56:19;4.05;;;1.25;;
64915;SDS011;51427;-27.442;153.014;2022-09-13T05:58:47;11.40;;;2.30;;
64915;SDS011;51427;-27.442;153.014;2022-09-13T06:01:16;5.93;;;1.92;;
64915;SDS011;51427;-27.442;153.014;2022-09-13T06:03:54;5.40;;;1.48;;
64915;SDS011;51427;-27.442;153.014;2022-09-13T06:06:23;5.80;;;1.67;;
64915;SDS011;51427;-27.442;153.014;2022-09-13T06:08:53;6.63;;;1.70;;
64915;SDS011;51427;-27.442;153.014;2022-09-13T06:11:22;6.28;;;1.63;;
64915;SDS011;51427;-27.442;153.014;2022-09-13T06:13:53;5.60;;;1.40;;
64915;SDS011;51427;-27.442;153.014;2022-09-13T06:16:21;9.07;;;1.95;;
64915;SDS011;51427;-27.442;153.014;2022-09-13T06:18:48;5.72;;;1.42;;
64915;SDS011;51427;-27.442;153.014;2022-09-13T06:21:16;5.03;;;1.45;;
64915;SDS011;51427;-27.442;153.014;2022-09-13T06:23:46;3.25;;;1.20;;
64915;SDS011;51427;-27.442;153.014;2022-09-13T06:26:16;8.10;;;1.80;;
64915;SDS011;51427;-27.442;153.014;2022-09-13T06:28:48;5.75;;;2.08;;
64915;SDS011;51427;-27.442;153.014;2022-09-13T06:31:17;4.60;;;1.67;;
64915;SDS011;51427;-27.442;153.014;2022-09-13T06:33:46;9.38;;;1.73;;
64915;SDS011;51427;-27.442;153.014;2022-09-13T06:36:14;5.07;;;1.73;;
64915;SDS011;51427;-27.442;153.014;2022-09-13T06:38:46;6.38;;;1.80;;
64915;SDS011;51427;-27.442;153.014;2022-09-13T06:41:15;4.63;;;1.50;;
64915;SDS011;51427;-27.442;153.014;2022-09-13T06:43:44;6.22;;;1.35;;
64915;SDS011;51427;-27.442;153.014;2022-09-13T06:46:16;4.95;;;1.50;;
64915;SDS011;51427;-27.442;153.014;2022-09-13T06:48:45;7.30;;;1.73;;
64915;SDS011;51427;-27.442;153.014;2022-09-13T06:51:14;6.35;;;1.40;;
64915;SDS011;51427;-27.442;153.014;2022-09-13T06:53:44;7.05;;;1.80;;
64915;SDS011;51427;-27.442;153.014;2022-09-13T06:58:43;6.15;;;1.92;;
64915;SDS011;51427;-27.442;153.014;2022-09-13T07:01:15;5.05;;;1.80;;
64915;SDS011;51427;-27.442;153.014;2022-09-13T07:03:45;7.70;;;2.35;;
64915;SDS011;51427;-27.442;153.014;2022-09-13T07:06:19;6.32;;;2.00;;
64915;SDS011;51427;-27.442;153.014;2022-09-13T07:08:49;5.68;;;1.75;;
64915;SDS011;51427;-27.442;153.014;2022-09-13T07:11:17;5.40;;;1.85;;
64915;SDS011;51427;-27.442;153.014;2022-09-13T07:13:47;7.07;;;1.70;;
64915;SDS011;51427;-27.442;153.014;2022-09-13T07:16:15;8.13;;;1.63;;
64915;SDS011;51427;-27.442;153.014;2022-09-13T07:18:53;4.95;;;1.38;;
64915;SDS011;51427;-27.442;153.014;2022-09-13T07:21:22;6.03;;;1.60;;
64915;SDS011;51427;-27.442;153.014;2022-09-13T07:23:50;6.97;;;1.77;;
64915;SDS011;51427;-27.442;153.014;2022-09-13T07:26:19;8.07;;;1.67;;
64915;SDS011;51427;-27.442;153.014;2022-09-13T07:28:48;4.18;;;1.88;;
64915;SDS011;51427;-27.442;153.014;2022-09-13T07:31:21;7.05;;;2.00;;
64915;SDS011;51427;-27.442;153.014;2022-09-13T07:33:57;8.48;;;1.73;;
64915;SDS011;51427;-27.442;153.014;2022-09-13T07:36:26;7.30;;;2.20;;
64915;SDS011;51427;-27.442;153.014;2022-09-13T07:38:55;5.78;;;1.90;;
64915;SDS011;51427;-27.442;153.014;2022-09-13T07:41:24;5.53;;;1.73;;
64915;SDS011;51427;-27.442;153.014;2022-09-13T07:43:53;4.10;;;1.65;;
64915;SDS011;51427;-27.442;153.014;2022-09-13T07:46:22;6.90;;;2.30;;
64915;SDS011;51427;-27.442;153.014;2022-09-13T07:48:51;5.75;;;1.92;;
64915;SDS011;51427;-27.442;153.014;2022-09-13T07:51:21;9.55;;;2.13;;
64915;SDS011;51427;-27.442;153.014;2022-09-13T07:53:50;3.83;;;1.90;;
64915;SDS011;51427;-27.442;153.014;2022-09-13T07:56:22;11.25;;;2.13;;
64915;SDS011;51427;-27.442;153.014;2022-09-13T07:58:51;9.88;;;2.45;;
64915;SDS011;51427;-27.442;153.014;2022-09-13T08:01:23;6.53;;;2.17;;
64915;SDS011;51427;-27.442;153.014;2022-09-13T08:03:52;9.90;;;2.55;;
64915;SDS011;51427;-27.442;153.014;2022-09-13T08:06:25;10.80;;;2.53;;
64915;SDS011;51427;-27.442;153.014;2022-09-13T08:08:56;6.28;;;1.83;;
64915;SDS011;51427;-27.442;153.014;2022-09-13T08:11:25;3.92;;;2.03;;
64915;SDS011;51427;-27.442;153.014;2022-09-13T08:14:04;5.57;;;1.92;;
64915;SDS011;51427;-27.442;153.014;2022-09-13T08:16:32;8.70;;;2.20;;
64915;SDS011;51427;-27.442;153.014;2022-09-13T08:19:00;7.40;;;1.95;;
64915;SDS011;51427;-27.442;153.014;2022-09-13T08:21:33;8.57;;;1.95;;
64915;SDS011;51427;-27.442;153.014;2022-09-13T08:24:05;6.53;;;2.03;;
64915;SDS011;51427;-27.442;153.014;2022-09-13T08:26:34;6.50;;;1.90;;
64915;SDS011;51427;-27.442;153.014;2022-09-13T08:29:04;8.98;;;2.15;;
64915;SDS011;51427;-27.442;153.014;2022-09-13T08:31:32;3.75;;;1.77;;
64915;SDS011;51427;-27.442;153.014;2022-09-13T08:33:59;6.97;;;2.33;;
64915;SDS011;51427;-27.442;153.014;2022-09-13T08:36:27;8.82;;;2.05;;
64915;SDS011;51427;-27.442;153.014;2022-09-13T08:38:56;10.00;;;2.63;;
64915;SDS011;51427;-27.442;153.014;2022-09-13T08:48:55;6.97;;;1.92;;
64915;SDS011;51427;-27.442;153.014;2022-09-13T08:51:40;5.25;;;2.35;;
64915;SDS011;51427;-27.442;153.014;2022-09-13T08:54:13;7.47;;;2.70;;
64915;SDS011;51427;-27.442;153.014;2022-09-13T08:56:50;4.63;;;2.17;;
64915;SDS011;51427;-27.442;153.014;2022-09-13T08:59:25;6.88;;;2.17;;
64915;SDS011;51427;-27.442;153.014;2022-09-13T09:07:30;7.57;;;2.58;;
64915;SDS011;51427;-27.442;153.014;2022-09-13T09:10:16;7.35;;;2.20;;
64915;SDS011;51427;-27.442;153.014;2022-09-13T09:13:18;9.32;;;2.60;;
64915;SDS011;51427;-27.442;153.014;2022-09-13T09:16:01;5.63;;;2.13;;
64915;SDS011;51427;-27.442;153.014;2022-09-13T09:18:51;8.35;;;2.20;;
64915;SDS011;51427;-27.442;153.014;2022-09-13T09:21:24;5.90;;;2.00;;
64915;SDS011;51427;-27.442;153.014;2022-09-13T09:23:53;8.23;;;2.50;;
64915;SDS011;51427;-27.442;153.014;2022-09-13T09:37:14;7.82;;;2.53;;
64915;SDS011;51427;-27.442;153.014;2022-09-13T09:39:37;4.68;;;2.33;;
64915;SDS011;51427;-27.442;153.014;2022-09-13T09:42:21;11.00;;;2.95;;
64915;SDS011;51427;-27.442;153.014;2022-09-13T09:44:59;4.97;;;2.00;;
64915;SDS011;51427;-27.442;153.014;2022-09-13T09:47:49;5.20;;;1.88;;
64915;SDS011;51427;-27.442;153.014;2022-09-13T09:50:27;7.53;;;2.25;;
64915;SDS011;51427;-27.442;153.014;2022-09-13T09:53:11;8.52;;;2.20;;
64915;SDS011;51427;-27.442;153.014;2022-09-13T09:56:00;5.68;;;2.35;;
64915;SDS011;51427;-27.442;153.014;2022-09-13T09:58:36;6.97;;;2.13;;
64915;SDS011;51427;-27.442;153.014;2022-09-13T10:01:05;7.18;;;2.10;;
64915;SDS011;51427;-27.442;153.014;2022-09-13T10:03:42;6.30;;;1.88;;
64915;SDS011;51427;-27.442;153.014;2022-09-13T10:06:18;5.03;;;2.00;;
64915;SDS011;51427;-27.442;153.014;2022-09-13T10:09:03;9.10;;;2.30;;
64915;SDS011;51427;-27.442;153.014;2022-09-13T10:11:48;7.82;;;2.00;;
64915;SDS011;51427;-27.442;153.014;2022-09-13T10:14:25;7.15;;;2.33;;
64915;SDS011;51427;-27.442;153.014;2022-09-13T10:17:13;6.05;;;2.20;;
64915;SDS011;51427;-27.442;153.014;2022-09-13T10:19:56;7.50;;;2.05;;
64915;SDS011;51427;-27.442;153.014;2022-09-13T10:22:30;6.75;;;2.13;;
64915;SDS011;51427;-27.442;153.014;2022-09-13T10:27:49;6.03;;;2.17;;
64915;SDS011;51427;-27.442;153.014;2022-09-13T10:33:01;5.10;;;2.20;;
64915;SDS011;51427;-27.442;153.014;2022-09-13T10:35:29;6.70;;;2.20;;
64915;SDS011;51427;-27.442;153.014;2022-09-13T10:37:57;4.32;;;2.15;;
64915;SDS011;51427;-27.442;153.014;2022-09-13T10:40:28;7.65;;;2.22;;
64915;SDS011;51427;-27.442;153.014;2022-09-13T10:42:59;6.28;;;2.17;;
64915;SDS011;51427;-27.442;153.014;2022-09-13T10:45:29;7.13;;;1.98;;
64915;SDS011;51427;-27.442;153.014;2022-09-13T10:48:16;7.75;;;2.10;;
64915;SDS011;51427;-27.442;153.014;2022-09-13T10:51:06;5.13;;;2.03;;
64915;SDS011;51427;-27.442;153.014;2022-09-13T10:53:43;8.90;;;2.58;;
64915;SDS011;51427;-27.442;153.014;2022-09-13T10:56:21;3.58;;;1.80;;
64915;SDS011;51427;-27.442;153.014;2022-09-13T10:58:52;7.47;;;2.05;;
64915;SDS011;51427;-27.442;153.014;2022-09-13T11:04:49;9.95;;;2.38;;
64915;SDS011;51427;-27.442;153.014;2022-09-13T11:07:49;7.30;;;1.88;;
64915;SDS011;51427;-27.442;153.014;2022-09-13T11:22:09;4.95;;;1.92;;
64915;SDS011;51427;-27.442;153.014;2022-09-13T11:24:54;6.70;;;1.73;;
64915;SDS011;51427;-27.442;153.014;2022-09-13T11:30:21;4.38;;;2.00;;
64915;SDS011;51427;-27.442;153.014;2022-09-13T11:33:00;6.53;;;2.22;;
64915;SDS011;51427;-27.442;153.014;2022-09-13T11:46:49;4.70;;;1.80;;
64915;SDS011;51427;-27.442;153.014;2022-09-13T11:57:39;10.30;;;2.42;;
64915;SDS011;51427;-27.442;153.014;2022-09-13T12:05:55;5.90;;;2.00;;
64915;SDS011;51427;-27.442;153.014;2022-09-13T12:11:10;4.32;;;1.83;;
64915;SDS011;51427;-27.442;153.014;2022-09-13T12:13:52;5.90;;;1.80;;
64915;SDS011;51427;-27.442;153.014;2022-09-13T12:16:27;7.90;;;2.67;;
64915;SDS011;51427;-27.442;153.014;2022-09-13T12:19:04;7.97;;;2.35;;
64915;SDS011;51427;-27.442;153.014;2022-09-13T12:21:39;8.23;;;2.38;;
64915;SDS011;51427;-27.442;153.014;2022-09-13T12:27:02;3.53;;;1.88;;
64915;SDS011;51427;-27.442;153.014;2022-09-13T12:29:46;6.07;;;1.98;;
64915;SDS011;51427;-27.442;153.014;2022-09-13T12:32:15;4.85;;;1.83;;
64915;SDS011;51427;-27.442;153.014;2022-09-13T12:37:33;4.32;;;2.20;;
64915;SDS011;51427;-27.442;153.014;2022-09-13T12:54:01;3.95;;;1.90;;
64915;SDS011;51427;-27.442;153.014;2022-09-13T12:56:44;7.50;;;2.63;;
64915;SDS011;51427;-27.442;153.014;2022-09-13T12:59:41;6.80;;;2.28;;
64915;SDS011;51427;-27.442;153.014;2022-09-13T13:03:19;7.15;;;2.03;;
64915;SDS011;51427;-27.442;153.014;2022-09-13T13:08:26;9.38;;;2.10;;
64915;SDS011;51427;-27.442;153.014;2022-09-13T13:16:02;4.72;;;1.92;;
64915;SDS011;51427;-27.442;153.014;2022-09-13T13:18:51;5.60;;;2.20;;
64915;SDS011;51427;-27.442;153.014;2022-09-13T13:21:27;4.50;;;2.03;;
64915;SDS011;51427;-27.442;153.014;2022-09-13T13:26:46;5.25;;;2.00;;
64915;SDS011;51427;-27.442;153.014;2022-09-13T13:39:46;4.90;;;2.25;;
64915;SDS011;51427;-27.442;153.014;2022-09-13T13:50:16;7.90;;;2.00;;
64915;SDS011;51427;-27.442;153.014;2022-09-13T13:57:59;5.00;;;2.08;;
64915;SDS011;51427;-27.442;153.014;2022-09-13T14:00:30;4.82;;;2.05;;
64915;SDS011;51427;-27.442;153.014;2022-09-13T14:10:50;9.32;;;2.47;;
64915;SDS011;51427;-27.442;153.014;2022-09-13T14:24:36;9.43;;;2.70;;
64915;SDS011;51427;-27.442;153.014;2022-09-13T14:27:04;8.60;;;3.25;;
64915;SDS011;51427;-27.442;153.014;2022-09-13T14:29:32;9.13;;;3.53;;
64915;SDS011;51427;-27.442;153.014;2022-09-13T14:32:01;4.35;;;2.63;;
64915;SDS011;51427;-27.442;153.014;2022-09-13T14:34:35;6.90;;;2.67;;
64915;SDS011;51427;-27.442;153.014;2022-09-13T14:37:05;4.00;;;2.05;;
64915;SDS011;51427;-27.442;153.014;2022-09-13T14:40:27;5.75;;;2.25;;
64915;SDS011;51427;-27.442;153.014;2022-09-13T14:42:39;5.10;;;2.10;;
64915;SDS011;51427;-27.442;153.014;2022-09-13T14:45:12;4.05;;;2.03;;
64915;SDS011;51427;-27.442;153.014;2022-09-13T14:47:49;4.80;;;2.40;;
64915;SDS011;51427;-27.442;153.014;2022-09-13T14:50:24;12.40;;;2.90;;
64915;SDS011;51427;-27.442;153.014;2022-09-13T14:52:57;7.05;;;2.97;;
64915;SDS011;51427;-27.442;153.014;2022-09-13T14:55:31;6.10;;;2.80;;
64915;SDS011;51427;-27.442;153.014;2022-09-13T14:58:03;6.25;;;2.90;;
64915;SDS011;51427;-27.442;153.014;2022-09-13T15:00:36;9.20;;;3.05;;
64915;SDS011;51427;-27.442;153.014;2022-09-13T15:03:14;5.10;;;2.80;;
64915;SDS011;51427;-27.442;153.014;2022-09-13T15:05:49;4.70;;;2.63;;
64915;SDS011;51427;-27.442;153.014;2022-09-13T15:11:02;7.55;;;2.80;;
64915;SDS011;51427;-27.442;153.014;2022-09-13T15:13:31;7.47;;;3.00;;
64915;SDS011;51427;-27.442;153.014;2022-09-13T15:15:59;6.72;;;2.42;;
64915;SDS011;51427;-27.442;153.014;2022-09-13T15:18:31;7.97;;;2.60;;
64915;SDS011;51427;-27.442;153.014;2022-09-13T15:20:59;8.65;;;2.80;;
64915;SDS011;51427;-27.442;153.014;2022-09-13T15:23:33;7.40;;;3.03;;
64915;SDS011;51427;-27.442;153.014;2022-09-13T15:26:11;7.75;;;3.20;;
64915;SDS011;51427;-27.442;153.014;2022-09-13T15:28:51;6.47;;;2.70;;
64915;SDS011;51427;-27.442;153.014;2022-09-13T15:31:22;9.18;;;2.70;;
64915;SDS011;51427;-27.442;153.014;2022-09-13T15:36:47;6.25;;;2.70;;
64915;SDS011;51427;-27.442;153.014;2022-09-13T15:39:44;5.85;;;2.55;;
64915;SDS011;51427;-27.442;153.014;2022-09-13T15:42:18;7.18;;;2.47;;
64915;SDS011;51427;-27.442;153.014;2022-09-13T15:44:45;7.43;;;2.95;;
64915;SDS011;51427;-27.442;153.014;2022-09-13T15:47:16;7.75;;;2.70;;
64915;SDS011;51427;-27.442;153.014;2022-09-13T15:49:48;6.82;;;2.55;;
64915;SDS011;51427;-27.442;153.014;2022-09-13T15:52:17;6.38;;;2.47;;
64915;SDS011;51427;-27.442;153.014;2022-09-13T15:54:48;8.52;;;2.58;;
64915;SDS011;51427;-27.442;153.014;2022-09-13T15:57:26;6.38;;;2.38;;
64915;SDS011;51427;-27.442;153.014;2022-09-13T15:59:54;6.50;;;2.72;;
64915;SDS011;51427;-27.442;153.014;2022-09-13T16:02:26;5.80;;;2.33;;
64915;SDS011;51427;-27.442;153.014;2022-09-13T16:04:56;11.90;;;2.50;;
64915;SDS011;51427;-27.442;153.014;2022-09-13T16:07:24;9.40;;;2.50;;
64915;SDS011;51427;-27.442;153.014;2022-09-13T16:09:52;5.35;;;2.60;;
64915;SDS011;51427;-27.442;153.014;2022-09-13T16:12:19;7.03;;;2.80;;
64915;SDS011;51427;-27.442;153.014;2022-09-13T16:14:49;4.55;;;2.45;;
64915;SDS011;51427;-27.442;153.014;2022-09-13T16:17:25;5.75;;;2.67;;
64915;SDS011;51427;-27.442;153.014;2022-09-13T16:19:53;5.10;;;2.40;;
64915;SDS011;51427;-27.442;153.014;2022-09-13T16:22:21;6.47;;;3.15;;
64915;SDS011;51427;-27.442;153.014;2022-09-13T16:24:48;6.22;;;2.80;;
64915;SDS011;51427;-27.442;153.014;2022-09-13T16:27:16;4.03;;;2.60;;
64915;SDS011;51427;-27.442;153.014;2022-09-13T16:29:45;5.68;;;2.38;;
64915;SDS011;51427;-27.442;153.014;2022-09-13T16:32:13;6.72;;;2.95;;
64915;SDS011;51427;-27.442;153.014;2022-09-13T16:34:40;5.60;;;2.60;;
64915;SDS011;51427;-27.442;153.014;2022-09-13T16:37:09;7.53;;;2.80;;
64915;SDS011;51427;-27.442;153.014;2022-09-13T16:39:45;7.05;;;2.80;;
64915;SDS011;51427;-27.442;153.014;2022-09-13T16:42:13;9.43;;;2.90;;
64915;SDS011;51427;-27.442;153.014;2022-09-13T16:44:42;8.35;;;2.67;;
64915;SDS011;51427;-27.442;153.014;2022-09-13T16:47:09;9.32;;;3.05;;
64915;SDS011;51427;-27.442;153.014;2022-09-13T16:49:37;7.30;;;2.70;;
64915;SDS011;51427;-27.442;153.014;2022-09-13T16:52:04;6.18;;;2.55;;
64915;SDS011;51427;-27.442;153.014;2022-09-13T16:54:31;7.15;;;2.60;;
64915;SDS011;51427;-27.442;153.014;2022-09-13T16:57:00;6.88;;;2.60;;
64915;SDS011;51427;-27.442;153.014;2022-09-13T16:59:29;7.95;;;2.42;;
64915;SDS011;51427;-27.442;153.014;2022-09-13T17:01:57;4.90;;;2.90;;
64915;SDS011;51427;-27.442;153.014;2022-09-13T17:04:24;6.75;;;2.33;;
64915;SDS011;51427;-27.442;153.014;2022-09-13T17:06:51;10.18;;;3.17;;
64915;SDS011;51427;-27.442;153.014;2022-09-13T17:09:18;5.45;;;2.85;;
64915;SDS011;51427;-27.442;153.014;2022-09-13T17:11:48;8.68;;;3.17;;
64915;SDS011;51427;-27.442;153.014;2022-09-13T17:14:15;6.15;;;2.60;;
64915;SDS011;51427;-27.442;153.014;2022-09-13T17:16:44;4.38;;;3.03;;
64915;SDS011;51427;-27.442;153.014;2022-09-13T17:19:16;9.15;;;3.20;;
64915;SDS011;51427;-27.442;153.014;2022-09-13T17:21:45;6.65;;;2.83;;
64915;SDS011;51427;-27.442;153.014;2022-09-13T17:24:13;5.25;;;2.72;;
64915;SDS011;51427;-27.442;153.014;2022-09-13T17:26:41;6.47;;;2.80;;
64915;SDS011;51427;-27.442;153.014;2022-09-13T17:29:12;7.75;;;2.60;;
64915;SDS011;51427;-27.442;153.014;2022-09-13T17:31:40;8.85;;;2.97;;
64915;SDS011;51427;-27.442;153.014;2022-09-13T17:34:08;8.20;;;2.97;;
64915;SDS011;51427;-27.442;153.014;2022-09-13T17:36:37;7.93;;;2.90;;
64915;SDS011;51427;-27.442;153.014;2022-09-13T17:39:05;3.88;;;2.22;;
64915;SDS011;51427;-27.442;153.014;2022-09-13T17:41:32;7.70;;;2.85;;
64915;SDS011;51427;-27.442;153.014;2022-09-13T17:44:01;8.90;;;2.95;;
64915;SDS011;51427;-27.442;153.014;2022-09-13T17:46:28;8.88;;;3.20;;
64915;SDS011;51427;-27.442;153.014;2022-09-13T17:48:57;6.60;;;2.47;;
64915;SDS011;51427;-27.442;153.014;2022-09-13T17:51:29;5.63;;;2.33;;
64915;SDS011;51427;-27.442;153.014;2022-09-13T17:53:58;4.63;;;2.30;;
64915;SDS011;51427;-27.442;153.014;2022-09-13T17:59:09;8.10;;;2.60;;
64915;SDS011;51427;-27.442;153.014;2022-09-13T18:01:42;5.50;;;2.70;;
64915;SDS011;51427;-27.442;153.014;2022-09-13T18:04:15;6.47;;;2.40;;
64915;SDS011;51427;-27.442;153.014;2022-09-13T18:06:43;7.05;;;3.00;;
64915;SDS011;51427;-27.442;153.014;2022-09-13T18:09:11;7.07;;;2.38;;
64915;SDS011;51427;-27.442;153.014;2022-09-13T18:11:40;7.00;;;2.40;;
64915;SDS011;51427;-27.442;153.014;2022-09-13T18:14:11;6.25;;;2.72;;
64915;SDS011;51427;-27.442;153.014;2022-09-13T18:16:40;7.40;;;2.70;;
64915;SDS011;51427;-27.442;153.014;2022-09-13T18:19:08;5.32;;;2.70;;
64915;SDS011;51427;-27.442;153.014;2022-09-13T18:21:36;4.07;;;2.53;;